Jackson Hole, Wyoming
Current Conditions -  °F | °C
As of 1:51 PM on Thursday 18 Dec 2014 (Local Time) from KJAC Reporting Station
Light Snow Light Snow  
Wind Chill: -4°   Ceiling: 2600
Heat Index: -4°   Visibility: 10mi
Dew Point: -5°   Wind: 0mph
Humidity: 93%   Direction: NA
Pressure: 30.07"   Gusts: NA
Location:  43.48°N, 110.761°W
Report Text: KJAC 182051Z 00000KT 10SM -SN OVC026 M04/M05 A3007 -SN
Loading
Personal Weather Stations






























Interactive Weather Map New forecast layout! Learn more

10-Day Weather Forecast

Advertisements
Track Severe Weather on mobile